OITM  Sahand  Airport

Maragheh, Iran

Add Bookmark
Status IATA
Operational ACP
Latitude Longitude
37° 20' 52" N 46° 7' 40" E
37.348000 46.127899
Local (DST + 5) UTC (GMT + 4)
Mar 5, 2015 02:11 Mar 4, 2015 22:41
Sunrise-Sunset Local UTC
Begin Civil Twilight 06:23 02:53
Sunrise 06:49 03:19
Sunset 06:24 14:54
End Civil Twilight 06:50 15:20

Current Weather

METAR Observed VFR
OITM 042100Z 13006KT 9999 SCT035 05/M01 Q1013 Wed, Mar 4, 2015 @ 21:00 UTC
(1 Hour, 41 Minutes ago)
Visual Flight Rules
Wind Visibility Clouds Conditions
130° at 6 knots (11 kph) 10 km or more
  • Scattered at 3,500' AGL
  • No significant weather
Temperatures Readings Precipitation
Current Temp 5°C (41°F)
Dewpoint -1°C (30°F)
Humidity 66%
Altimeter 29.91"Hg
Sea Level Pressure 1013mb
Field Elevation 4396.33'
None Recorded

Additional weather within a 92.6km radius of OITM

Map ICAO Location
OITT 87.8km N (006°)

24 Hour Weather History

Loading
-

24 Hour Weather Graphs

Loading
-

CheckWX.com is intended as a tool to help pilots better visualize weather data. It is not intended as a substitute for an official weather briefing obtained from a Flight Service Station. CheckWX.com does not meet the FAA requirements for an official pre-flight weather briefing. Therefore, it's important that pilots still call and obtain an official FSS pre-flight weather briefing.